Time;durP1;ratioP1;P1;durP2;ratioP2;P2;SDS_P1;SDS_P2;PMS_P1;PMS_P2;Temp;Humidity;BMP_temperature;BMP_pressure;BME280_temperature;BME280_humidity;BME280_pressure;Samples;Min_cycle;Max_cycle;Signal;HPM_P1;HPM_P2
2023/07/05 00:00:36;;;;;;;;;;;;;;;18.42;100.00;99577.88;5031758;28;874;-62
2023/07/05 00:03:04;;;;;;;;;;;;;;;18.42;100.00;99580.69;5031814;28;822;-62
2023/07/05 00:05:34;;;;;;;;;;;;;;;18.47;100.00;99574.47;5030430;28;933;-62
2023/07/05 00:08:01;;;;;;;;;;;;;;;18.47;100.00;99580.06;5031738;28;826;-62
2023/07/05 00:10:29;;;;;;;;;;;;;;;18.44;100.00;99572.59;5031698;28;842;-62
2023/07/05 00:12:56;;;;;;;;;;;;;;;18.43;100.00;99573.06;5031876;28;1886;-62
2023/07/05 00:15:23;;;;;;;;;;;;;;;18.39;100.00;99576.00;5031374;28;1431;-62
2023/07/05 00:17:51;;;;;;;;;;;;;;;18.38;100.00;99573.69;5031856;28;846;-62
2023/07/05 00:20:19;;;;;;;;;;;;;;;18.35;100.00;99581.75;5030301;28;1278;-62
2023/07/05 00:22:46;;;;;;;;;;;;;;;18.32;100.00;99581.88;5031608;28;897;-62
2023/07/05 00:25:13;;;;;;;;;;;;;;;18.29;100.00;99578.00;5031314;28;850;-62
2023/07/05 00:27:40;;;;;;;;;;;;;;;18.32;100.00;99579.09;5031430;28;913;-62
2023/07/05 00:30:07;;;;;;;;;;;;;;;18.42;100.00;99571.50;5031568;28;831;-61
2023/07/05 00:32:35;;;;;;;;;;;;;;;18.49;100.00;99571.22;5031500;28;806;-62
2023/07/05 00:35:02;;;;;;;;;;;;;;;18.49;100.00;99568.41;5030067;28;1294;-62
2023/07/05 00:37:29;;;;;;;;;;;;;;;18.49;100.00;99574.78;5031492;28;846;-62
2023/07/05 00:39:57;;;;;;;;;;;;;;;18.46;100.00;99567.31;5031478;28;838;-62
2023/07/05 00:42:24;;;;;;;;;;;;;;;18.40;100.00;99566.38;5031377;28;870;-62
2023/07/05 00:45:21;;;;;;;;;;;;;;;18.31;100.00;99564.31;5031300;28;941;-62
2023/07/05 00:47:48;;;;;;;;;;;;;;;18.23;100.00;99570.69;5031270;28;1458;-62
2023/07/05 00:50:24;;;;;;;;;;;;;;;18.17;100.00;99576.09;5032048;28;763;-62
2023/07/05 00:52:53;;;;;;;;;;;;;;;18.09;100.00;99563.63;5031212;28;1898;-62
2023/07/05 00:55:20;;;;;;;;;;;;;;;18.02;100.00;99580.69;5031282;28;802;-62
2023/07/05 00:57:48;;;;;;;;;;;;;;;17.95;100.00;99574.13;5031099;28;862;-62
2023/07/05 01:00:15;;;;;;;;;;;;;;;18.00;100.00;99563.59;5031222;28;831;-62
2023/07/05 01:02:45;;;;;;;;;;;;;;;18.13;100.00;99570.63;5031478;28;798;-61
2023/07/05 01:05:12;;;;;;;;;;;;;;;18.28;100.00;99562.44;5031173;28;831;-62
2023/07/05 01:07:39;;;;;;;;;;;;;;;18.37;100.00;99564.50;5031200;28;904;-62
2023/07/05 01:10:15;;;;;;;;;;;;;;;18.35;100.00;99559.38;5031020;28;873;-62
2023/07/05 01:13:00;;;;;;;;;;;;;;;18.29;100.00;99561.22;5031386;28;1964;-62
2023/07/05 01:15:34;;;;;;;;;;;;;;;18.17;100.00;99560.06;5031063;28;1494;-62
2023/07/05 01:18:16;;;;;;;;;;;;;;;18.12;100.00;99552.28;5031103;28;834;-62
2023/07/05 01:20:43;;;;;;;;;;;;;;;18.14;100.00;99549.03;5031480;28;857;-62
2023/07/05 01:23:19;;;;;;;;;;;;;;;18.14;100.00;99546.25;5031764;28;820;-62
2023/07/05 01:25:48;;;;;;;;;;;;;;;18.08;100.00;99554.44;5030987;28;889;-61
2023/07/05 01:28:18;;;;;;;;;;;;;;;18.06;100.00;99547.75;5030955;28;837;-62
2023/07/05 01:30:53;;;;;;;;;;;;;;;18.00;100.00;99549.59;5030907;28;893;-62
2023/07/05 01:33:41;;;;;;;;;;;;;;;17.96;100.00;99555.31;5031233;28;1999;-62
2023/07/05 01:36:09;;;;;;;;;;;;;;;18.05;100.00;99554.59;5030963;28;1219;-62
2023/07/05 01:38:37;;;;;;;;;;;;;;;18.14;100.00;99555.41;5034199;28;815;-63
2023/07/05 01:41:06;;;;;;;;;;;;;;;18.15;100.00;99547.78;5034397;28;818;-62
2023/07/05 01:43:36;;;;;;;;;;;;;;;18.04;100.00;99550.25;5034333;28;1019;-62
2023/07/05 01:46:18;;;;;;;;;;;;;;;17.93;100.00;99543.06;5034380;28;862;-62
2023/07/05 01:48:56;;;;;;;;;;;;;;;17.91;100.00;99541.97;5034305;28;854;-62
2023/07/05 01:51:57;;;;;;;;;;;;;;;17.87;100.00;99544.09;5034167;28;822;-61
2023/07/05 01:54:33;;;;;;;;;;;;;;;17.88;100.00;99538.06;5022115;28;1878;-62
2023/07/05 01:57:13;;;;;;;;;;;;;;;17.94;100.00;99539.03;5033966;28;917;-63
2023/07/05 01:59:50;;;;;;;;;;;;;;;17.93;100.00;99543.06;5034032;28;830;-62
2023/07/05 02:02:18;;;;;;;;;;;;;;;17.89;100.00;99545.19;5034041;28;858;-62
2023/07/05 02:04:46;;;;;;;;;;;;;;;17.85;100.00;99544.56;5033938;28;901;-62
2023/07/05 02:07:15;;;;;;;;;;;;;;;17.82;100.00;99539.91;5033865;28;810;-62
2023/07/05 02:09:43;;;;;;;;;;;;;;;17.75;100.00;99549.31;5034101;28;784;-62
2023/07/05 02:12:11;;;;;;;;;;;;;;;17.75;100.00;99548.50;5034251;28;922;-62
2023/07/05 02:14:38;;;;;;;;;;;;;;;17.83;100.00;99560.25;5033718;28;1906;-62
2023/07/05 02:17:05;;;;;;;;;;;;;;;17.78;100.00;99549.63;5033835;28;821;-63
2023/07/05 02:19:33;;;;;;;;;;;;;;;17.68;100.00;99546.00;5033757;28;905;-62
2023/07/05 02:22:02;;;;;;;;;;;;;;;17.58;100.00;99547.97;5033668;28;917;-62
2023/07/05 02:24:29;;;;;;;;;;;;;;;17.50;100.00;99550.25;5033553;28;851;-62
2023/07/05 02:26:57;;;;;;;;;;;;;;;17.59;100.00;99552.31;5033479;28;818;-62
2023/07/05 02:29:25;;;;;;;;;;;;;;;17.63;100.00;99552.19;5033506;28;846;-62
2023/07/05 02:31:52;;;;;;;;;;;;;;;17.56;100.00;99550.44;5033451;28;863;-62
2023/07/05 02:34:20;;;;;;;;;;;;;;;17.46;100.00;99551.63;5033347;28;1971;-62
2023/07/05 02:36:46;;;;;;;;;;;;;;;17.39;100.00;99547.09;5033339;28;818;-62
2023/07/05 02:39:14;;;;;;;;;;;;;;;17.36;100.00;99550.78;5033304;28;810;-62
2023/07/05 02:41:41;;;;;;;;;;;;;;;17.38;100.00;99544.75;5033557;28;850;-62
2023/07/05 02:44:09;;;;;;;;;;;;;;;17.34;100.00;99548.44;5033263;28;834;-63
2023/07/05 02:46:37;;;;;;;;;;;;;;;17.30;100.00;99556.19;5033052;28;991;-62
2023/07/05 02:49:04;;;;;;;;;;;;;;;17.23;100.00;99556.44;5032985;28;838;-63
2023/07/05 02:51:34;;;;;;;;;;;;;;;17.22;100.00;99562.47;5033297;28;791;-62
2023/07/05 02:54:01;;;;;;;;;;;;;;;17.23;100.00;99556.44;5032929;28;1886;-62
2023/07/05 02:56:28;;;;;;;;;;;;;;;17.31;100.00;99565.34;5032884;28;850;-62
2023/07/05 02:58:56;;;;;;;;;;;;;;;17.35;100.00;99563.19;5032936;28;877;-62
2023/07/05 03:01:23;;;;;;;;;;;;;;;17.35;100.00;99568.78;5032843;28;802;-62
2023/07/05 03:03:50;;;;;;;;;;;;;;;17.39;100.00;99572.22;5032842;28;838;-62
2023/07/05 03:06:17;;;;;;;;;;;;;;;17.40;100.00;99565.41;5032749;28;992;-62
2023/07/05 03:08:44;;;;;;;;;;;;;;;17.40;100.00;99567.41;5032739;28;830;-62
2023/07/05 03:11:12;;;;;;;;;;;;;;;17.40;100.00;99568.19;5032743;28;798;-62
2023/07/05 03:13:39;;;;;;;;;;;;;;;17.39;100.00;99563.84;5031120;28;1882;-62
2023/07/05 03:16:07;;;;;;;;;;;;;;;17.40;100.00;99570.97;5032661;28;881;-62
2023/07/05 03:18:35;;;;;;;;;;;;;;;17.45;100.00;99572.41;5032741;28;807;-62
2023/07/05 03:21:02;;;;;;;;;;;;;;;17.58;100.00;99569.53;5032492;28;834;-62
2023/07/05 03:23:29;;;;;;;;;;;;;;;17.62;100.00;99570.19;5031164;28;1361;-62
2023/07/05 03:26:00;;;;;;;;;;;;;;;17.63;100.00;99572.53;5031015;28;1182;-62
2023/07/05 03:28:31;;;;;;;;;;;;;;;17.70;100.00;99577.06;5033028;28;798;-62
2023/07/05 03:31:01;;;;;;;;;;;;;;;17.78;100.00;99572.78;5032309;28;862;-62
2023/07/05 03:33:28;;;;;;;;;;;;;;;17.89;100.00;99575.97;5032178;28;1980;-62
2023/07/05 03:36:03;;;;;;;;;;;;;;;18.01;100.00;99579.91;5032332;28;897;-62
2023/07/05 03:38:31;;;;;;;;;;;;;;;18.13;100.00;99575.44;5030928;28;1249;-62
2023/07/05 03:41:04;;;;;;;;;;;;;;;18.28;100.00;99572.84;5032236;28;842;-62
2023/07/05 03:43:33;;;;;;;;;;;;;;;18.48;100.00;99573.25;5032834;28;806;-62
2023/07/05 03:46:01;;;;;;;;;;;;;;;18.70;100.00;99575.16;5032280;28;897;-62
2023/07/05 03:48:29;;;;;;;;;;;;;;;18.88;100.00;99582.81;5032278;28;811;-62
2023/07/05 03:50:58;;;;;;;;;;;;;;;19.04;100.00;99579.72;5030791;28;1167;-62
2023/07/05 03:53:26;;;;;;;;;;;;;;;19.23;100.00;99583.31;5031832;28;1902;-62
2023/07/05 03:55:53;;;;;;;;;;;;;;;19.37;100.00;99577.06;5031804;28;909;-62
2023/07/05 03:58:20;;;;;;;;;;;;;;;19.48;100.00;99565.38;5031828;28;803;-61
2023/07/05 04:00:47;;;;;;;;;;;;;;;19.55;100.00;99572.69;5031424;28;925;-62
2023/07/05 04:03:15;;;;;;;;;;;;;;;19.63;100.00;99565.50;5032084;28;810;-62
2023/07/05 04:05:42;;;;;;;;;;;;;;;19.79;100.00;99570.78;5031793;28;890;-63
2023/07/05 04:08:09;;;;;;;;;;;;;;;20.09;100.00;99570.97;5031741;28;818;-62
2023/07/05 04:10:36;;;;;;;;;;;;;;;20.41;100.00;99568.66;5031720;28;881;-62
2023/07/05 04:13:05;;;;;;;;;;;;;;;20.54;100.00;99572.00;5031891;28;1890;-62
2023/07/05 04:15:32;;;;;;;;;;;;;;;20.64;100.00;99567.16;5031489;28;1256;-62
2023/07/05 04:17:59;;;;;;;;;;;;;;;20.77;100.00;99567.69;5031646;28;921;-62
2023/07/05 04:20:30;;;;;;;;;;;;;;;20.85;100.00;99565.28;5031611;28;933;-62
2023/07/05 04:22:59;;;;;;;;;;;;;;;20.93;100.00;99560.06;5031620;28;854;-62
2023/07/05 04:25:27;;;;;;;;;;;;;;;20.98;100.00;99568.63;5031431;28;846;-62
2023/07/05 04:27:54;;;;;;;;;;;;;;;21.01;100.00;99572.50;5031519;28;818;-61
2023/07/05 04:30:21;;;;;;;;;;;;;;;21.05;100.00;99563.91;5031472;28;846;-62
2023/07/05 04:32:48;;;;;;;;;;;;;;;21.12;100.00;99571.94;5031429;28;1918;-63
2023/07/05 04:35:16;;;;;;;;;;;;;;;21.20;100.00;99565.47;5031441;28;914;-62
2023/07/05 04:37:43;;;;;;;;;;;;;;;21.32;100.00;99557.28;5031382;28;945;-62
2023/07/05 04:40:11;;;;;;;;;;;;;;;21.44;100.00;99561.06;5031363;28;811;-62
2023/07/05 04:42:38;;;;;;;;;;;;;;;21.55;100.00;99558.44;5031417;28;807;-63
2023/07/05 04:45:06;;;;;;;;;;;;;;;21.70;100.00;99552.84;5031345;28;803;-63
2023/07/05 04:47:33;;;;;;;;;;;;;;;21.90;100.00;99552.16;5031359;28;1584;-62
2023/07/05 04:50:01;;;;;;;;;;;;;;;22.08;100.00;99556.78;5031700;28;826;-62
2023/07/05 04:52:28;;;;;;;;;;;;;;;22.24;100.00;99549.88;5031942;28;806;-62
2023/07/05 04:54:56;;;;;;;;;;;;;;;22.38;100.00;99551.88;5031369;28;1882;-62
2023/07/05 04:57:23;;;;;;;;;;;;;;;22.48;100.00;99558.94;5031472;28;876;-62
2023/07/05 04:59:51;;;;;;;;;;;;;;;22.63;100.00;99561.69;5031427;28;838;-62
2023/07/05 05:02:18;;;;;;;;;;;;;;;22.79;100.00;99560.38;5031229;28;919;-62
2023/07/05 05:04:45;;;;;;;;;;;;;;;22.96;100.00;99561.34;5031428;28;901;-62
2023/07/05 05:07:13;;;;;;;;;;;;;;;23.09;100.00;99552.56;5029972;28;1523;-62
2023/07/05 05:09:40;;;;;;;;;;;;;;;23.26;100.00;99560.41;5031106;28;978;-62
2023/07/05 05:12:08;;;;;;;;;;;;;;;23.41;100.00;99553.41;5031257;28;1561;-63
2023/07/05 05:14:35;;;;;;;;;;;;;;;23.63;100.00;99555.66;5034508;28;1910;-62
2023/07/05 05:17:03;;;;;;;;;;;;;;;23.73;100.00;99561.13;5034876;28;815;-62
2023/07/05 05:19:30;;;;;;;;;;;;;;;23.86;100.00;99558.72;5034847;28;897;-62
2023/07/05 05:21:57;;;;;;;;;;;;;;;24.05;100.00;99559.88;5034938;28;886;-62
2023/07/05 05:24:24;;;;;;;;;;;;;;;24.29;100.00;99555.16;5034542;28;898;-62
2023/07/05 05:26:54;;;;;;;;;;;;;;;24.58;100.00;99554.84;5034726;28;815;-62
2023/07/05 05:29:21;;;;;;;;;;;;;;;24.82;100.00;99553.69;5034604;28;844;-62
2023/07/05 05:31:49;;;;;;;;;;;;;;;25.02;100.00;99549.88;5034800;28;921;-63
2023/07/05 05:34:15;;;;;;;;;;;;;;;25.43;100.00;99547.47;5034359;28;1977;-62
2023/07/05 05:36:43;;;;;;;;;;;;;;;25.85;100.00;99554.16;5034458;28;1040;-63
2023/07/05 05:39:10;;;;;;;;;;;;;;;26.11;100.00;99558.03;5034452;28;814;-62
2023/07/05 05:41:38;;;;;;;;;;;;;;;26.27;100.00;99554.41;5034448;28;823;-63
2023/07/05 05:44:05;;;;;;;;;;;;;;;26.40;100.00;99559.53;5033051;28;1326;-63
2023/07/05 05:46:33;;;;;;;;;;;;;;;26.43;100.00;99553.59;5034205;28;1029;-63
2023/07/05 05:49:00;;;;;;;;;;;;;;;26.38;100.00;99551.56;5034233;28;1218;-62
2023/07/05 05:51:27;;;;;;;;;;;;;;;26.48;100.00;99544.31;5034264;28;885;-63
2023/07/05 05:53:55;;;;;;;;;;;;;;;26.83;100.00;99545.75;5034344;28;1890;-62
2023/07/05 05:56:22;;;;;;;;;;;;;;;27.14;100.00;99549.50;5034032;28;877;-63
2023/07/05 05:58:49;;;;;;;;;;;;;;;27.19;100.00;99539.41;5034130;28;865;-64
2023/07/05 06:01:19;;;;;;;;;;;;;;;27.41;100.00;99542.09;5034038;28;881;-63
2023/07/05 06:03:47;;;;;;;;;;;;;;;27.85;100.00;99543.09;5033985;28;865;-63
2023/07/05 06:06:15;;;;;;;;;;;;;;;28.41;100.00;99538.94;5033960;28;834;-63
2023/07/05 06:08:42;;;;;;;;;;;;;;;29.09;100.00;99538.94;5034133;28;866;-63
2023/07/05 06:11:10;;;;;;;;;;;;;;;29.99;100.00;99536.03;5033839;28;810;-63
2023/07/05 06:13:37;;;;;;;;;;;;;;;30.80;100.00;99532.66;5033713;28;1881;-63
2023/07/05 06:16:05;;;;;;;;;;;;;;;31.40;99.89;99530.34;5033751;28;827;-63
2023/07/05 06:18:33;;;;;;;;;;;;;;;32.19;95.28;99526.31;5033669;28;897;-63
2023/07/05 06:21:00;;;;;;;;;;;;;;;32.77;91.52;99529.16;5033967;28;806;-63
2023/07/05 06:23:27;;;;;;;;;;;;;;;33.19;89.39;99526.84;5033575;28;783;-63
2023/07/05 06:25:53;;;;;;;;;;;;;;;33.75;82.78;99522.19;5034156;28;775;-63
2023/07/05 06:28:21;;;;;;;;;;;;;;;33.41;76.74;99528.22;5032242;28;1381;-63
2023/07/05 06:30:48;;;;;;;;;;;;;;;32.56;78.09;99530.00;5033738;28;894;-63
2023/07/05 06:33:15;;;;;;;;;;;;;;;32.54;75.88;99524.09;5033383;28;1913;-63
2023/07/05 06:35:49;;;;;;;;;;;;;;;33.02;72.49;99527.34;5034144;28;747;-62
2023/07/05 06:38:16;;;;;;;;;;;;;;;33.58;70.13;99524.81;5033247;28;850;-62
2023/07/05 06:40:50;;;;;;;;;;;;;;;34.47;67.00;99519.47;5033331;28;933;-62
2023/07/05 06:43:17;;;;;;;;;;;;;;;35.20;65.11;99528.22;5033458;28;823;-64
2023/07/05 06:45:48;;;;;;;;;;;;;;;35.06;63.60;99529.78;5033195;28;905;-63
2023/07/05 06:48:16;;;;;;;;;;;;;;;35.17;61.01;99527.28;5033208;28;874;-63
2023/07/05 06:50:43;;;;;;;;;;;;;;;35.54;59.33;99535.47;5033154;28;890;-63
2023/07/05 06:53:10;;;;;;;;;;;;;;;35.68;57.56;99530.25;5032902;28;1952;-63
2023/07/05 06:55:40;;;;;;;;;;;;;;;35.67;54.19;99526.59;5033144;28;861;-63
2023/07/05 06:58:07;;;;;;;;;;;;;;;36.19;52.90;99523.13;5033241;28;873;-63
2023/07/05 07:00:34;;;;;;;;;;;;;;;37.05;47.53;99524.44;5033490;28;862;-63
2023/07/05 07:03:02;;;;;;;;;;;;;;;37.21;45.70;99525.03;5033174;28;919;-63
2023/07/05 07:05:30;;;;;;;;;;;;;;;37.11;45.40;99539.38;5032992;28;867;-63
2023/07/05 07:07:57;;;;;;;;;;;;;;;37.11;45.53;99527.84;5032856;28;815;-64
2023/07/05 07:10:24;;;;;;;;;;;;;;;37.47;45.43;99526.38;5032891;28;848;-65
2023/07/05 07:12:51;;;;;;;;;;;;;;;37.30;45.54;99535.84;5032950;28;944;-64
2023/07/05 07:15:19;;;;;;;;;;;;;;;37.22;45.15;99528.69;5032261;28;1339;-63
2023/07/05 07:17:48;;;;;;;;;;;;;;;36.89;44.35;99528.88;5032635;28;920;-64
2023/07/05 07:20:15;;;;;;;;;;;;;;;36.96;44.07;99530.91;5032472;28;909;-63
2023/07/05 07:22:44;;;;;;;;;;;;;;;37.35;43.07;99531.94;5032408;28;807;-63
2023/07/05 07:25:11;;;;;;;;;;;;;;;37.63;41.69;99535.56;5032423;28;822;-64
2023/07/05 07:27:38;;;;;;;;;;;;;;;37.89;37.54;99525.34;5032455;28;885;-64
2023/07/05 07:30:06;;;;;;;;;;;;;;;37.98;36.37;99535.38;5031110;28;897;-64
2023/07/05 07:32:33;;;;;;;;;;;;;;;38.14;35.33;99538.81;5032278;28;950;-63
2023/07/05 07:35:00;;;;;;;;;;;;;;;38.03;34.88;99527.81;5031461;28;1977;-64
2023/07/05 07:37:27;;;;;;;;;;;;;;;37.82;34.16;99520.47;5032243;28;853;-64
2023/07/05 07:39:54;;;;;;;;;;;;;;;37.79;33.29;99518.81;5032216;28;880;-64
2023/07/05 07:42:21;;;;;;;;;;;;;;;37.75;33.15;99524.25;5032160;28;905;-64
2023/07/05 07:44:48;;;;;;;;;;;;;;;38.06;33.37;99515.09;5032154;28;897;-64
2023/07/05 07:47:15;;;;;;;;;;;;;;;38.19;32.61;99518.28;5032119;28;1757;-64
2023/07/05 07:49:43;;;;;;;;;;;;;;;38.45;32.77;99515.88;5031933;28;913;-64
2023/07/05 07:52:11;;;;;;;;;;;;;;;38.66;32.62;99506.66;5031910;28;872;-64
2023/07/05 07:54:38;;;;;;;;;;;;;;;38.46;32.87;99519.56;5031898;28;1882;-64
2023/07/05 07:57:06;;;;;;;;;;;;;;;38.48;33.00;99522.59;5031897;28;815;-63
2023/07/05 07:59:35;;;;;;;;;;;;;;;38.45;32.91;99515.13;5031865;28;854;-65
2023/07/05 08:02:03;;;;;;;;;;;;;;;38.59;32.69;99525.66;5031838;28;921;-63
2023/07/05 08:04:30;;;;;;;;;;;;;;;38.80;31.71;99519.25;5031993;28;889;-64
2023/07/05 08:06:57;;;;;;;;;;;;;;;38.61;32.06;99516.38;5031778;28;811;-64
2023/07/05 08:09:28;;;;;;;;;;;;;;;38.70;31.60;99521.38;5031702;28;834;-65
2023/07/05 08:11:56;;;;;;;;;;;;;;;38.97;31.21;99514.72;5031762;28;911;-64
2023/07/05 08:14:23;;;;;;;;;;;;;;;39.16;31.00;99511.78;5030040;28;1945;-63
2023/07/05 08:16:51;;;;;;;;;;;;;;;39.81;30.60;99517.78;5031626;28;886;-63
2023/07/05 08:19:20;;;;;;;;;;;;;;;39.79;30.12;99509.72;5031659;28;873;-64
2023/07/05 08:21:48;;;;;;;;;;;;;;;39.58;30.37;99510.44;5031678;28;842;-63
2023/07/05 08:24:16;;;;;;;;;;;;;;;39.43;30.09;99515.81;5031509;28;799;-64
2023/07/05 08:26:44;;;;;;;;;;;;;;;39.00;31.60;99511.34;5031597;28;873;-63
2023/07/05 08:29:11;;;;;;;;;;;;;;;38.67;31.98;99507.44;5031585;28;819;-64
2023/07/05 08:31:41;;;;;;;;;;;;;;;38.70;32.45;99514.88;5031461;28;910;-63
2023/07/05 08:34:10;;;;;;;;;;;;;;;38.58;31.99;99515.47;5031706;28;1980;-63
2023/07/05 08:36:38;;;;;;;;;;;;;;;38.22;32.06;99512.69;5031426;28;936;-63
2023/07/05 08:39:06;;;;;;;;;;;;;;;38.20;32.59;99502.50;5031515;28;925;-64
2023/07/05 08:41:40;;;;;;;;;;;;;;;37.66;34.66;99501.91;5031425;28;877;-64
2023/07/05 08:44:20;;;;;;;;;;;;;;;37.82;34.13;99500.28;5031495;28;826;-65
2023/07/05 08:46:55;;;;;;;;;;;;;;;38.19;33.64;99495.22;5033897;28;809;-65
2023/07/05 08:49:29;;;;;;;;;;;;;;;38.29;32.57;99503.88;5035290;28;834;-66
2023/07/05 08:51:56;;;;;;;;;;;;;;;37.89;33.46;99502.28;5035420;28;827;-64
2023/07/05 08:54:31;;;;;;;;;;;;;;;37.61;33.63;99500.06;5035240;28;1934;-65
2023/07/05 08:57:06;;;;;;;;;;;;;;;37.70;32.91;99500.09;5035193;28;965;-64
2023/07/05 08:59:47;;;;;;;;;;;;;;;38.04;32.79;99500.50;5035479;28;834;-64
2023/07/05 09:02:17;;;;;;;;;;;;;;;38.25;32.88;99499.94;5035175;28;827;-62
2023/07/05 09:04:47;;;;;;;;;;;;;;;38.44;32.89;99496.31;5035070;28;850;-65
2023/07/05 09:07:32;;;;;;;;;;;;;;;38.08;33.17;99498.69;5035005;28;841;-64
2023/07/05 09:09:59;;;;;;;;;;;;;;;38.22;33.60;99493.25;5035052;28;775;-64
2023/07/05 09:12:34;;;;;;;;;;;;;;;37.67;34.27;99489.78;5035120;28;888;-65
2023/07/05 09:15:20;;;;;;;;;;;;;;;37.46;34.12;99483.75;5034549;28;1906;-64
2023/07/05 09:17:52;;;;;;;;;;;;;;;37.89;33.75;99484.97;5035156;28;814;-64
2023/07/05 09:20:30;;;;;;;;;;;;;;;38.13;33.58;99491.88;5034704;28;802;-64
2023/07/05 09:23:00;;;;;;;;;;;;;;;37.88;33.28;99489.22;5034941;28;837;-65
2023/07/05 09:25:30;;;;;;;;;;;;;;;37.66;33.58;99487.47;5035028;28;905;-64
2023/07/05 09:28:05;;;;;;;;;;;;;;;37.70;33.39;99484.91;5034720;28;930;-64
2023/07/05 09:30:33;;;;;;;;;;;;;;;37.13;34.16;99484.81;5034558;28;949;-64
2023/07/05 09:33:06;;;;;;;;;;;;;;;37.01;35.39;99489.56;5034493;28;1914;-65
2023/07/05 09:35:36;;;;;;;;;;;;;;;37.17;35.52;99481.47;5034531;28;886;-67
2023/07/05 09:38:01;;;;;;;;;;;;;;;37.31;35.53;99484.75;5035097;28;764;-64
2023/07/05 10:12:01;;;;;;;;;;;;;;;34.76;38.02;99463.34;5983352;22;1702;-57
2023/07/05 10:14:37;;;;;;;;;;;;;;;34.21;39.71;99466.97;5033816;28;1906;-56
2023/07/05 10:17:07;;;;;;;;;;;;;;;33.38;42.06;99463.50;5033865;28;821;-56
2023/07/05 10:19:49;;;;;;;;;;;;;;;33.50;43.91;99461.81;5033778;28;972;-56
2023/07/05 10:22:30;;;;;;;;;;;;;;;34.63;42.50;99460.75;5033727;28;819;-56
2023/07/05 10:25:01;;;;;;;;;;;;;;;34.82;43.14;99459.50;5033701;28;798;-56
2023/07/05 10:27:37;;;;;;;;;;;;;;;34.22;45.24;99477.06;5033596;28;877;-56
2023/07/05 10:30:06;;;;;;;;;;;;;;;33.73;48.37;99464.69;5033745;28;814;-56
2023/07/05 10:32:33;;;;;;;;;;;;;;;33.59;49.56;99463.34;5033503;28;893;-56
2023/07/05 10:35:01;;;;;;;;;;;;;;;32.91;50.87;99467.59;5033635;28;1899;-56
2023/07/05 10:37:30;;;;;;;;;;;;;;;32.90;52.46;99454.59;5033385;28;858;-56
2023/07/05 10:39:57;;;;;;;;;;;;;;;33.65;52.54;99451.69;5033570;28;885;-56
2023/07/05 10:42:25;;;;;;;;;;;;;;;34.46;50.90;99454.81;5033485;28;818;-56
2023/07/05 10:44:52;;;;;;;;;;;;;;;34.74;49.45;99460.28;5033459;28;917;-56
2023/07/05 10:47:19;;;;;;;;;;;;;;;35.25;48.53;99457.53;5033390;28;819;-56
2023/07/05 10:49:49;;;;;;;;;;;;;;;35.63;48.00;99450.72;5033562;28;881;-56
2023/07/05 10:52:17;;;;;;;;;;;;;;;35.98;45.82;99458.09;5033151;28;874;-56
2023/07/05 10:54:47;;;;;;;;;;;;;;;36.13;44.30;99457.22;5033047;28;1893;-57
2023/07/05 10:57:18;;;;;;;;;;;;;;;36.09;44.27;99459.72;5033035;28;881;-56
2023/07/05 10:59:50;;;;;;;;;;;;;;;36.25;44.39;99459.56;5033057;28;799;-56
2023/07/05 11:02:27;;;;;;;;;;;;;;;36.24;44.06;99455.19;5032975;28;806;-56
2023/07/05 11:04:54;;;;;;;;;;;;;;;36.48;42.94;99448.56;5032963;28;861;-57
2023/07/05 11:07:23;;;;;;;;;;;;;;;36.62;42.85;99449.00;5032927;28;830;-57
2023/07/05 11:09:51;;;;;;;;;;;;;;;36.73;42.70;99448.47;5031541;28;791;-56
2023/07/05 11:12:21;;;;;;;;;;;;;;;37.00;42.09;99444.84;5032671;28;1221;-57
2023/07/05 11:14:48;;;;;;;;;;;;;;;37.26;41.68;99445.47;5032662;28;1910;-57
2023/07/05 11:17:24;;;;;;;;;;;;;;;37.43;41.01;99436.72;5032663;28;798;-56
2023/07/05 11:19:51;;;;;;;;;;;;;;;37.59;40.70;99440.13;5032876;28;893;-56
2023/07/05 11:22:57;;;;;;;;;;;;;;;38.09;39.74;99433.88;5032864;28;853;-57
2023/07/05 11:25:45;;;;;;;;;;;;;;;37.48;40.50;99438.56;5010587;28;1480;-57
2023/07/05 11:28:30;;;;;;;;;;;;;;;37.03;41.03;99428.50;5010573;28;1753;-57
2023/07/05 11:30:58;;;;;;;;;;;;;;;35.43;43.64;99441.91;5010496;28;1058;-57
2023/07/05 11:33:25;;;;;;;;;;;;;;;34.31;46.20;99429.81;5010681;28;1953;-57
2023/07/05 11:35:53;;;;;;;;;;;;;;;33.48;49.04;99392.88;5010379;28;966;-57
2023/07/05 11:38:43;;;;;;;;;;;;;;;33.31;47.98;99435.66;4994126;28;863;-56
2023/07/05 11:41:24;;;;;;;;;;;;;;;34.66;43.72;99427.25;5010193;28;937;-56
2023/07/05 11:43:56;;;;;;;;;;;;;;;34.60;41.71;99426.66;5010292;28;941;-56
2023/07/05 11:46:39;;;;;;;;;;;;;;;34.92;41.05;99414.47;5010356;28;866;-56
2023/07/05 11:49:23;;;;;;;;;;;;;;;36.80;37.49;99418.06;5010309;28;929;-56
2023/07/05 11:52:11;;;;;;;;;;;;;;;38.42;34.32;99413.22;5010225;28;807;-57
2023/07/05 11:54:42;;;;;;;;;;;;;;;37.60;34.09;99418.59;5009958;28;2035;-56
2023/07/05 11:57:11;;;;;;;;;;;;;;;36.31;35.94;99414.81;5030592;28;932;-56
2023/07/05 12:00:00;;;;;;;;;;;;;;;35.47;37.36;99407.00;5031889;28;929;-56
2023/07/05 12:02:48;;;;;;;;;;;;;;;36.82;35.59;99397.31;5030590;28;906;-56
2023/07/05 12:05:17;;;;;;;;;;;;;;;38.33;32.98;99396.66;5031848;28;957;-56
2023/07/05 12:07:49;;;;;;;;;;;;;;;39.51;31.18;99395.72;5031790;28;983;-56
2023/07/05 12:10:19;;;;;;;;;;;;;;;38.24;32.11;99386.66;5030755;28;889;-56
2023/07/05 12:12:47;;;;;;;;;;;;;;;36.78;34.09;99404.25;5030309;28;1484;-56
2023/07/05 12:15:14;;;;;;;;;;;;;;;35.41;35.22;99389.25;5031689;28;1902;-56
2023/07/05 12:17:42;;;;;;;;;;;;;;;34.55;36.71;99391.88;5031739;28;865;-56
2023/07/05 12:20:21;;;;;;;;;;;;;;;36.17;34.50;99382.78;5031448;28;838;-56
2023/07/05 12:22:48;;;;;;;;;;;;;;;37.58;32.57;99386.75;5031532;28;941;-56
2023/07/05 12:25:16;;;;;;;;;;;;;;;36.52;34.46;99387.72;5031586;28;842;-56
2023/07/05 12:27:43;;;;;;;;;;;;;;;37.68;33.21;99378.84;5031749;28;826;-56
2023/07/05 12:30:18;;;;;;;;;;;;;;;39.11;30.30;99370.50;5031587;28;811;-57
2023/07/05 12:33:02;;;;;;;;;;;;;;;40.14;28.52;99375.38;5031445;28;885;-57
2023/07/05 12:35:30;;;;;;;;;;;;;;;40.95;27.76;99376.22;5031421;28;1084;-57
2023/07/05 12:37:58;;;;;;;;;;;;;;;40.80;28.21;99366.66;5031545;28;885;-57
2023/07/05 12:40:27;;;;;;;;;;;;;;;38.83;29.19;99364.22;5031248;28;929;-56
2023/07/05 12:42:54;;;;;;;;;;;;;;;39.35;29.36;99363.56;5030206;28;936;-57
2023/07/05 12:45:30;;;;;;;;;;;;;;;40.38;28.71;99353.81;5031458;28;886;-56
2023/07/05 12:48:11;;;;;;;;;;;;;;;41.34;26.42;99353.31;5031359;28;1335;-57
2023/07/05 12:50:38;;;;;;;;;;;;;;;41.24;26.56;99351.94;5031701;28;802;-56
2023/07/05 12:53:07;;;;;;;;;;;;;;;40.19;27.94;99354.00;5031342;28;1956;-57
2023/07/05 12:55:38;;;;;;;;;;;;;;;39.79;28.33;99361.44;5031300;28;845;-56
2023/07/05 12:58:06;;;;;;;;;;;;;;;40.31;27.41;99357.72;5031268;28;929;-56
2023/07/05 13:00:35;;;;;;;;;;;;;;;41.04;26.57;99357.97;5031303;28;822;-57
2023/07/05 13:03:04;;;;;;;;;;;;;;;41.19;25.95;99360.38;5031470;28;889;-56
2023/07/05 13:05:31;;;;;;;;;;;;;;;41.19;25.83;99351.69;5031265;28;890;-57
2023/07/05 13:08:01;;;;;;;;;;;;;;;41.64;25.71;99353.66;5031147;28;945;-56
2023/07/05 13:10:28;;;;;;;;;;;;;;;41.84;24.84;99354.09;5031356;28;886;-57
2023/07/05 13:12:58;;;;;;;;;;;;;;;41.30;25.22;99355.22;5031281;28;1238;-57
2023/07/05 13:15:37;;;;;;;;;;;;;;;40.60;25.35;99353.75;5031064;28;1910;-56
2023/07/05 13:18:14;;;;;;;;;;;;;;;40.23;24.98;99360.03;5031058;28;846;-56
2023/07/05 13:20:41;;;;;;;;;;;;;;;39.90;25.75;99351.34;5031070;28;902;-56
2023/07/05 13:23:09;;;;;;;;;;;;;;;39.83;26.07;99347.25;5031044;28;870;-56
2023/07/05 13:25:47;;;;;;;;;;;;;;;39.90;26.22;99339.78;5030974;28;859;-57
2023/07/05 13:28:21;;;;;;;;;;;;;;;39.81;26.37;99327.63;5030981;28;936;-56
2023/07/05 13:30:59;;;;;;;;;;;;;;;39.61;25.65;99337.84;5031127;28;843;-56
2023/07/05 13:33:27;;;;;;;;;;;;;;;39.02;26.11;99337.41;5032878;28;1944;-56
2023/07/05 13:35:54;;;;;;;;;;;;;;;38.94;26.65;99336.81;5034504;28;968;-57
2023/07/05 13:38:21;;;;;;;;;;;;;;;38.84;26.83;99342.63;5034415;28;835;-56
2023/07/05 13:40:53;;;;;;;;;;;;;;;38.63;27.07;99340.44;5034517;28;807;-56
2023/07/05 13:43:20;;;;;;;;;;;;;;;38.62;27.72;99341.78;5035186;28;846;-56
2023/07/05 13:45:48;;;;;;;;;;;;;;;38.97;27.08;99335.63;5034663;28;862;-56